Time;durP1;ratioP1;P1;durP2;ratioP2;P2;SDS_P1;SDS_P2;PMS_P1;PMS_P2;Temp;Humidity;BMP_temperature;BMP_pressure;BME280_temperature;BME280_humidity;BME280_pressure;Samples;Min_cycle;Max_cycle;Signal;HPM_P1;HPM_P2
2023/08/31 00:02:20;;;;;;;8.20;3.70;;;;;;;-147.95;100.00;58458.38;5079470;28;20077;-82
2023/08/31 00:04:45;;;;;;;10.40;3.70;;;;;;;-147.95;100.00;58458.38;5068471;28;20036;-83
2023/08/31 00:07:12;;;;;;;8.23;3.63;;;;;;;-147.95;100.00;58458.38;5080533;28;20028;-82
2023/08/31 00:09:38;;;;;;;5.57;3.75;;;;;;;-147.95;100.00;58458.38;5085687;28;20032;-83
2023/08/31 00:12:04;;;;;;;6.88;4.07;;;;;;;-147.95;100.00;58458.38;5076288;28;20082;-83
2023/08/31 00:14:30;;;;;;;10.23;3.50;;;;;;;-147.95;100.00;58458.38;5084266;28;20028;-83
2023/08/31 00:16:57;;;;;;;8.05;3.90;;;;;;;-147.95;100.00;58458.38;5083907;28;20482;-82
2023/08/31 00:19:23;;;;;;;5.35;3.50;;;;;;;-147.95;100.00;58458.38;5066130;28;20024;-82
2023/08/31 00:21:48;;;;;;;7.90;4.20;;;;;;;-147.95;100.00;58458.38;5080094;28;20475;-83
2023/08/31 00:24:16;;;;;;;7.35;4.22;;;;;;;-147.95;100.00;58458.38;5080515;28;20024;-83
2023/08/31 00:26:42;;;;;;;6.32;4.07;;;;;;;-147.95;100.00;58458.38;5082872;28;20408;-82
2023/08/31 00:29:10;;;;;;;6.90;4.40;;;;;;;-147.95;100.00;58458.38;5069328;28;20502;-83
2023/08/31 00:31:37;;;;;;;12.80;4.97;;;;;;;-147.95;100.00;58458.38;5085586;28;20031;-83
2023/08/31 00:34:04;;;;;;;7.45;4.13;;;;;;;-147.95;100.00;58458.38;5077423;28;20036;-83
2023/08/31 00:36:30;;;;;;;9.75;4.65;;;;;;;-147.95;100.00;58458.38;5063911;28;20110;-83
2023/08/31 00:38:56;;;;;;;7.03;4.40;;;;;;;-147.95;100.00;58458.38;5085993;28;20035;-83
2023/08/31 00:41:22;;;;;;;9.65;4.57;;;;;;;-147.95;100.00;58458.38;5061547;28;20090;-83
2023/08/31 00:43:48;;;;;;;9.88;4.97;;;;;;;-147.95;100.00;58458.38;5079930;28;20095;-83
2023/08/31 00:46:14;;;;;;;7.93;4.70;;;;;;;-147.95;100.00;58458.38;5066289;28;20028;-82
2023/08/31 00:48:41;;;;;;;10.60;4.90;;;;;;;-147.95;100.00;58458.38;5080989;28;20111;-82
2023/08/31 00:51:07;;;;;;;6.68;4.57;;;;;;;-147.95;100.00;58458.38;5083121;28;20111;-83
2023/08/31 00:53:35;;;;;;;9.75;4.85;;;;;;;-147.95;100.00;58458.38;5074339;28;20513;-82
2023/08/31 00:56:00;;;;;;;9.55;4.43;;;;;;;-147.95;100.00;58458.38;5082988;28;20028;-82
2023/08/31 00:58:26;;;;;;;10.00;5.43;;;;;;;-147.95;100.00;58458.38;5074238;28;20094;-82
2023/08/31 01:01:10;;;;;;;6.20;4.63;;;;;;;-147.95;100.00;58458.38;5082735;28;20089;-82
2023/08/31 01:04:02;;;;;;;7.60;4.55;;;;;;;-147.95;100.00;58458.38;5080816;28;20052;-83
2023/08/31 01:06:41;;;;;;;9.88;4.85;;;;;;;-147.95;100.00;58458.38;5086445;28;20038;-82
2023/08/31 01:09:26;;;;;;;10.45;5.00;;;;;;;-147.95;100.00;58458.38;5080369;28;20101;-83
2023/08/31 01:12:02;;;;;;;8.98;4.50;;;;;;;-147.95;100.00;58458.38;5082248;28;20060;-83
2023/08/31 01:14:34;;;;;;;6.35;4.50;;;;;;;-147.95;100.00;58458.38;5080273;28;20086;-82
2023/08/31 01:17:03;;;;;;;7.53;5.15;;;;;;;-147.95;100.00;58458.38;5082106;28;20100;-82
2023/08/31 01:20:09;;;;;;;9.35;5.00;;;;;;;-147.95;100.00;58458.38;5080608;28;20032;-82
2023/08/31 01:22:57;;;;;;;8.50;4.72;;;;;;;-147.95;100.00;58458.38;5020381;28;20079;-83
2023/08/31 01:25:24;;;;;;;8.25;5.22;;;;;;;-147.95;100.00;58458.38;5004561;28;20014;-82
2023/08/31 01:27:51;;;;;;;14.18;5.50;;;;;;;-147.95;100.00;58458.38;5039081;28;20084;-82
2023/08/31 01:30:17;;;;;;;8.65;4.90;;;;;;;-147.95;100.00;58458.38;5059427;28;20066;-83
2023/08/31 01:32:45;;;;;;;13.70;6.63;;;;;;;-147.95;100.00;58458.38;5086711;28;20063;-83
2023/08/31 01:35:16;;;;;;;17.92;7.20;;;;;;;-147.95;100.00;58458.38;5090260;28;20081;-82
2023/08/31 01:37:49;;;;;;;13.18;6.43;;;;;;;-147.95;100.00;58458.38;5080339;28;20110;-83
2023/08/31 01:40:20;;;;;;;9.05;5.75;;;;;;;-147.95;100.00;58458.38;5089900;28;20024;-83
2023/08/31 01:42:47;;;;;;;12.35;5.60;;;;;;;-147.95;100.00;58458.38;5082233;28;20478;-82
2023/08/31 01:45:16;;;;;;;10.02;6.10;;;;;;;-147.95;100.00;58458.38;5088429;28;20111;-83
2023/08/31 01:47:42;;;;;;;13.43;7.00;;;;;;;-147.95;100.00;58458.38;5081025;28;20054;-83
2023/08/31 01:50:08;;;;;;;9.10;6.20;;;;;;;-147.95;100.00;58458.38;5089529;28;20070;-78
2023/08/31 01:52:34;;;;;;;10.48;6.50;;;;;;;-147.95;100.00;58458.38;5085931;28;20039;-78
2023/08/31 01:54:59;;;;;;;10.95;6.50;;;;;;;-147.95;100.00;58458.38;5086534;28;20048;-78
2023/08/31 01:57:25;;;;;;;10.07;6.65;;;;;;;-147.95;100.00;58458.38;5069209;28;20039;-78
2023/08/31 01:59:50;;;;;;;10.55;7.03;;;;;;;-147.95;100.00;58458.38;5072227;28;20063;-78
2023/08/31 02:02:16;;;;;;;13.70;7.72;;;;;;;-147.95;100.00;58458.38;5084213;28;20062;-78
2023/08/31 02:04:43;;;;;;;9.85;6.95;;;;;;;-147.95;100.00;58458.38;5086809;28;20064;-78
2023/08/31 02:07:09;;;;;;;13.15;7.40;;;;;;;-147.95;100.00;58458.38;5081122;28;20169;-78
2023/08/31 02:09:34;;;;;;;11.57;7.63;;;;;;;-147.95;100.00;58458.38;5072872;28;20120;-78
2023/08/31 02:12:00;;;;;;;10.55;6.60;;;;;;;-147.95;100.00;58458.38;5089430;28;20016;-78
2023/08/31 02:14:25;;;;;;;14.25;7.60;;;;;;;-147.95;100.00;58458.38;5091552;28;20367;-78
2023/08/31 02:16:50;;;;;;;17.95;7.90;;;;;;;-147.95;100.00;58458.38;5089066;28;20035;-78
2023/08/31 02:19:16;;;;;;;18.73;8.07;;;;;;;-147.95;100.00;58458.38;5088276;28;20573;-78
2023/08/31 02:21:41;;;;;;;14.90;8.23;;;;;;;-147.95;100.00;58458.38;5066548;28;20036;-78
2023/08/31 02:24:07;;;;;;;18.02;8.85;;;;;;;-147.95;100.00;58458.38;5084395;28;20028;-78
2023/08/31 02:26:35;;;;;;;17.88;8.27;;;;;;;-147.95;100.00;58458.38;5080010;28;20058;-78
2023/08/31 02:29:00;;;;;;;17.58;9.18;;;;;;;-147.95;100.00;58458.38;5088175;28;20073;-78
2023/08/31 02:31:25;;;;;;;19.77;9.07;;;;;;;-147.95;100.00;58458.38;5088945;28;20035;-78
2023/08/31 02:33:52;;;;;;;15.23;8.45;;;;;;;-147.95;100.00;58458.38;5083836;28;20503;-78
2023/08/31 02:36:20;;;;;;;17.73;8.75;;;;;;;-147.95;100.00;58458.38;5071775;28;20052;-78
2023/08/31 02:38:46;;;;;;;17.70;9.23;;;;;;;-147.95;100.00;58458.38;5083270;28;20452;-78
2023/08/31 02:41:12;;;;;;;13.20;8.60;;;;;;;-147.95;100.00;58458.38;5086953;28;20036;-78
2023/08/31 02:43:39;;;;;;;21.10;9.93;;;;;;;-147.95;100.00;58458.38;5068195;28;20417;-78
2023/08/31 02:46:04;;;;;;;16.13;8.82;;;;;;;-147.95;100.00;58458.38;5081799;28;20124;-79
2023/08/31 02:48:32;;;;;;;19.55;9.43;;;;;;;-147.95;100.00;58458.38;5084729;28;20840;-78
2023/08/31 02:51:00;;;;;;;17.50;9.90;;;;;;;-147.95;100.00;58458.38;5087485;28;20111;-78
2023/08/31 02:53:29;;;;;;;17.30;9.68;;;;;;;-147.95;100.00;58458.38;5087266;28;20048;-79
2023/08/31 02:55:56;;;;;;;16.80;9.27;;;;;;;-147.95;100.00;58458.38;5084627;28;20032;-79
2023/08/31 02:58:22;;;;;;;20.95;9.63;;;;;;;-147.95;100.00;58458.38;5082804;28;20058;-79
2023/08/31 03:00:48;;;;;;;18.08;9.35;;;;;;;-147.95;100.00;58458.38;5085258;28;20063;-83
2023/08/31 03:03:17;;;;;;;17.17;9.23;;;;;;;-147.95;100.00;58458.38;5072017;28;20077;-83
2023/08/31 03:05:44;;;;;;;23.20;9.85;;;;;;;-147.95;100.00;58458.38;5088368;28;20016;-83
2023/08/31 03:08:10;;;;;;;14.70;9.30;;;;;;;-147.95;100.00;58458.38;5080617;28;20036;-83
2023/08/31 03:10:36;;;;;;;13.75;9.48;;;;;;;-147.95;100.00;58458.38;5081123;28;20372;-83
2023/08/31 03:13:01;;;;;;;18.58;9.32;;;;;;;-147.95;100.00;58458.38;5081699;28;20394;-83
2023/08/31 03:15:27;;;;;;;18.55;10.85;;;;;;;-147.95;100.00;58458.38;5084616;28;20044;-83
2023/08/31 03:17:52;;;;;;;18.65;10.02;;;;;;;-147.95;100.00;58458.38;5089554;28;20106;-83
2023/08/31 03:20:18;;;;;;;28.58;10.90;;;;;;;-147.95;100.00;58458.38;5083681;28;20410;-83
2023/08/31 03:22:43;;;;;;;27.55;11.13;;;;;;;-147.95;100.00;58458.38;5088537;28;20066;-83
2023/08/31 03:25:09;;;;;;;18.35;10.55;;;;;;;-147.95;100.00;58458.38;5086142;28;20036;-83
2023/08/31 03:27:35;;;;;;;19.10;10.43;;;;;;;-147.95;100.00;58458.38;5085703;28;20506;-83
2023/08/31 03:30:01;;;;;;;17.00;10.52;;;;;;;-147.95;100.00;58458.38;5080032;28;20124;-83
2023/08/31 03:32:28;;;;;;;25.70;11.32;;;;;;;-147.95;100.00;58458.38;5079584;28;20036;-83
2023/08/31 03:34:53;;;;;;;26.27;12.57;;;;;;;-147.95;100.00;58458.38;5085999;28;20487;-83
2023/08/31 03:37:19;;;;;;;19.23;10.48;;;;;;;-147.95;100.00;58458.38;5081462;28;20043;-83
2023/08/31 03:39:47;;;;;;;20.17;11.68;;;;;;;-147.95;100.00;58458.38;5088000;28;20020;-83
2023/08/31 03:42:13;;;;;;;20.23;10.88;;;;;;;-147.95;100.00;58458.38;5085948;28;20024;-83
2023/08/31 03:44:39;;;;;;;22.95;11.43;;;;;;;-147.95;100.00;58458.38;5081128;28;20032;-83
2023/08/31 03:47:06;;;;;;;19.65;11.27;;;;;;;-147.95;100.00;58458.38;5065780;28;20506;-83
2023/08/31 03:49:31;;;;;;;20.65;11.80;;;;;;;-147.95;100.00;58458.38;5068517;28;20141;-83
2023/08/31 03:51:57;;;;;;;26.33;11.43;;;;;;;-147.95;100.00;58458.38;5083072;28;20111;-83
2023/08/31 03:54:23;;;;;;;18.05;11.05;;;;;;;-147.95;100.00;58458.38;5082186;28;20052;-83
2023/08/31 03:56:48;;;;;;;18.95;12.25;;;;;;;-147.95;100.00;58458.38;5086566;28;20024;-82
2023/08/31 03:59:14;;;;;;;20.48;11.10;;;;;;;-147.95;100.00;58458.38;5064585;28;20502;-82
2023/08/31 04:01:39;;;;;;;17.65;11.15;;;;;;;-147.95;100.00;58458.38;5084875;28;20123;-82
2023/08/31 04:04:05;;;;;;;19.55;12.00;;;;;;;-147.95;100.00;58458.38;5086679;28;20055;-82
2023/08/31 04:06:31;;;;;;;25.50;12.15;;;;;;;-147.95;100.00;58458.38;5087647;28;20081;-83
2023/08/31 04:08:56;;;;;;;20.95;12.18;;;;;;;-147.95;100.00;58458.38;5082995;28;20039;-82
2023/08/31 04:11:22;;;;;;;26.58;11.82;;;;;;;-147.95;100.00;58458.38;5085575;28;20028;-79
2023/08/31 04:13:47;;;;;;;25.63;11.65;;;;;;;-147.95;100.00;58458.38;5069956;28;20051;-78
2023/08/31 04:16:13;;;;;;;21.55;11.57;;;;;;;-147.95;100.00;58458.38;5084761;28;20035;-78
2023/08/31 04:18:38;;;;;;;25.08;11.95;;;;;;;-147.95;100.00;58458.38;5083651;28;20036;-78
2023/08/31 04:21:04;;;;;;;20.25;11.95;;;;;;;-147.95;100.00;58458.38;5084293;28;20394;-78
2023/08/31 04:23:29;;;;;;;25.65;13.77;;;;;;;-147.95;100.00;58458.38;5081976;28;20119;-78
2023/08/31 04:25:57;;;;;;;20.27;11.40;;;;;;;-147.95;100.00;58458.38;5082899;28;20030;-77
2023/08/31 04:28:23;;;;;;;23.67;11.80;;;;;;;-147.95;100.00;58458.38;5080737;28;20055;-78
2023/08/31 04:30:49;;;;;;;21.45;11.52;;;;;;;-147.95;100.00;58458.38;5084013;28;20028;-79
2023/08/31 04:33:15;;;;;;;25.15;12.35;;;;;;;-147.95;100.00;58458.38;5069662;28;20027;-78
2023/08/31 04:35:40;;;;;;;27.92;12.15;;;;;;;-147.95;100.00;58458.38;5079805;28;20439;-78
2023/08/31 04:38:05;;;;;;;22.77;11.55;;;;;;;-147.95;100.00;58458.38;5077718;28;20024;-78
2023/08/31 04:40:31;;;;;;;30.17;12.32;;;;;;;-147.95;100.00;58458.38;5067633;28;20070;-78
2023/08/31 04:42:56;;;;;;;21.80;11.05;;;;;;;-147.95;100.00;58458.38;5058976;28;20033;-78
2023/08/31 04:45:22;;;;;;;22.58;12.25;;;;;;;-147.95;100.00;58458.38;5082222;28;20499;-79
2023/08/31 04:47:49;;;;;;;25.25;12.38;;;;;;;-147.95;100.00;58458.38;5082615;28;20126;-79
2023/08/31 04:50:14;;;;;;;27.33;12.07;;;;;;;-147.95;100.00;58458.38;5066357;28;20036;-78
2023/08/31 04:52:40;;;;;;;21.88;11.68;;;;;;;-147.95;100.00;58458.38;5086376;28;20055;-78
2023/08/31 04:55:12;;;;;;;21.60;11.23;;;;;;;-147.95;100.00;58458.38;5068821;28;20394;-78
2023/08/31 04:57:37;;;;;;;22.73;10.95;;;;;;;-147.95;100.00;58458.38;5080139;28;20402;-78
2023/08/31 05:00:04;;;;;;;25.42;10.98;;;;;;;-147.95;100.00;58458.38;5070600;28;20123;-78
2023/08/31 05:02:30;;;;;;;27.10;12.07;;;;;;;-147.95;100.00;58458.38;5061466;28;20049;-78
2023/08/31 05:04:55;;;;;;;25.35;10.27;;;;;;;-147.95;100.00;58458.38;5080036;28;20028;-78
2023/08/31 05:07:20;;;;;;;21.92;10.38;;;;;;;-147.95;100.00;58458.38;5073629;28;20042;-78
2023/08/31 05:09:46;;;;;;;20.35;10.98;;;;;;;-147.95;100.00;58458.38;5089336;28;20032;-78
2023/08/31 05:12:11;;;;;;;23.88;10.25;;;;;;;-147.95;100.00;58458.38;5065783;28;20024;-78
2023/08/31 05:14:37;;;;;;;21.90;10.77;;;;;;;-147.95;100.00;58458.38;5092670;28;20028;-78
2023/08/31 05:17:06;;;;;;;20.33;11.10;;;;;;;-147.95;100.00;58458.38;5081888;28;20040;-78
2023/08/31 05:19:31;;;;;;;20.30;10.18;;;;;;;-147.95;100.00;58458.38;5069041;28;20039;-83
2023/08/31 05:21:58;;;;;;;23.10;10.50;;;;;;;-147.95;100.00;58458.38;5084993;28;20031;-83
2023/08/31 05:24:24;;;;;;;20.10;10.10;;;;;;;-147.95;100.00;58458.38;5073120;28;20032;-83
2023/08/31 05:26:49;;;;;;;24.20;10.20;;;;;;;-147.95;100.00;58458.38;5082542;28;20032;-83
2023/08/31 05:29:16;;;;;;;28.83;10.18;;;;;;;-147.95;100.00;58458.38;5083730;28;20482;-82
2023/08/31 05:31:41;;;;;;;18.23;10.52;;;;;;;-147.95;100.00;58458.38;5083606;28;20025;-83
2023/08/31 05:34:09;;;;;;;18.50;10.95;;;;;;;-147.95;100.00;58458.38;5092565;28;20042;-83
2023/08/31 05:36:34;;;;;;;17.90;10.27;;;;;;;-147.95;100.00;58458.38;5087934;28;20028;-83
2023/08/31 05:39:00;;;;;;;18.58;10.10;;;;;;;-147.95;100.00;58458.38;5072047;28;20036;-83
2023/08/31 05:41:25;;;;;;;17.60;10.48;;;;;;;-147.95;100.00;58458.38;5087295;28;20483;-83
2023/08/31 05:43:50;;;;;;;20.42;10.27;;;;;;;-147.95;100.00;58458.38;5084107;28;20108;-83
2023/08/31 05:46:16;;;;;;;21.40;9.75;;;;;;;-147.95;100.00;58458.38;5075172;28;20028;-83
2023/08/31 05:48:42;;;;;;;17.67;9.65;;;;;;;-147.95;100.00;58458.38;5080153;28;20526;-82
2023/08/31 05:51:08;;;;;;;25.52;11.13;;;;;;;-147.95;100.00;58458.38;5082459;28;20082;-83
2023/08/31 05:53:33;;;;;;;24.88;11.60;;;;;;;-147.95;100.00;58458.38;5056826;28;20038;-83
2023/08/31 05:56:05;;;;;;;17.80;10.07;;;;;;;-147.95;100.00;58458.38;5056084;28;20028;-83
2023/08/31 05:58:33;;;;;;;18.13;9.32;;;;;;;-147.95;100.00;58458.38;5091961;28;20020;-83
2023/08/31 06:00:59;;;;;;;21.42;9.60;;;;;;;-147.95;100.00;58458.38;5081913;28;20261;-83
2023/08/31 06:03:25;;;;;;;18.58;8.95;;;;;;;-147.95;100.00;58458.38;5085324;28;20044;-83
2023/08/31 06:05:50;;;;;;;20.10;9.38;;;;;;;-147.95;100.00;58458.38;5084042;28;20054;-83
2023/08/31 06:08:15;;;;;;;18.88;10.35;;;;;;;-147.95;100.00;58458.38;5067379;28;20093;-84
2023/08/31 06:10:41;;;;;;;17.00;9.45;;;;;;;-147.95;100.00;58458.38;5078728;28;20475;-83
2023/08/31 06:13:07;;;;;;;20.40;9.00;;;;;;;-147.95;100.00;58458.38;5052056;28;20035;-83
2023/08/31 06:15:32;;;;;;;17.88;8.45;;;;;;;-147.95;100.00;58458.38;5086889;28;20542;-85
2023/08/31 06:17:57;;;;;;;15.82;8.18;;;;;;;-147.95;100.00;58458.38;5064254;28;20486;-85
2023/08/31 06:20:23;;;;;;;15.77;8.68;;;;;;;-147.95;100.00;58458.38;5080299;28;20084;-84
2023/08/31 06:22:49;;;;;;;16.70;8.05;;;;;;;-147.95;100.00;58458.38;5085916;28;20518;-83
2023/08/31 06:25:16;;;;;;;14.93;8.15;;;;;;;-147.95;100.00;58458.38;5085069;28;20028;-84
2023/08/31 06:27:43;;;;;;;16.60;8.73;;;;;;;-147.95;100.00;58458.38;5080311;28;20039;-86
2023/08/31 06:30:15;;;;;;;16.35;7.93;;;;;;;-147.95;100.00;58458.38;5075969;28;20509;-86
2023/08/31 06:32:41;;;;;;;17.27;8.07;;;;;;;-147.95;100.00;58458.38;5086299;28;20028;-84
2023/08/31 06:35:07;;;;;;;15.75;6.97;;;;;;;-147.95;100.00;58458.38;5081687;28;20127;-84
2023/08/31 06:37:32;;;;;;;14.38;7.20;;;;;;;-147.95;100.00;58458.38;5086395;28;20123;-85
2023/08/31 06:39:58;;;;;;;18.10;8.25;;;;;;;-147.95;100.00;58458.38;5070579;28;20036;-86
2023/08/31 06:42:23;;;;;;;15.23;8.27;;;;;;;-147.95;100.00;58458.38;5087194;28;20032;-85
2023/08/31 06:44:48;;;;;;;18.23;8.60;;;;;;;-147.95;100.00;58458.38;5081975;28;20067;-85
2023/08/31 06:47:17;;;;;;;16.67;8.23;;;;;;;-147.95;100.00;58458.38;5067136;28;20062;-85
2023/08/31 06:49:43;;;;;;;13.60;6.93;;;;;;;-147.95;100.00;58458.38;5079749;28;20467;-84
2023/08/31 06:52:09;;;;;;;13.90;7.22;;;;;;;-147.95;100.00;58458.38;5088873;28;20058;-83
2023/08/31 06:54:34;;;;;;;20.75;8.00;;;;;;;-147.95;100.00;58458.38;5088504;28;20662;-86
2023/08/31 06:57:00;;;;;;;12.70;6.90;;;;;;;-147.95;100.00;58458.38;5091574;28;20456;-84
2023/08/31 06:59:25;;;;;;;12.52;6.93;;;;;;;-147.95;100.00;58458.38;5083009;28;20039;-84
2023/08/31 07:01:53;;;;;;;19.48;7.00;;;;;;;-147.95;100.00;58458.38;5083591;28;20573;-83
2023/08/31 07:04:19;;;;;;;20.20;7.05;;;;;;;-147.95;100.00;58458.38;5084428;28;20048;-84
2023/08/31 07:06:44;;;;;;;12.63;7.40;;;;;;;-147.95;100.00;58458.38;5070094;28;20043;-84
2023/08/31 07:09:10;;;;;;;13.20;6.93;;;;;;;-147.95;100.00;58458.38;5068839;28;20055;-84
2023/08/31 07:11:36;;;;;;;13.50;6.57;;;;;;;-147.95;100.00;58458.38;5088195;28;20403;-84
2023/08/31 07:14:01;;;;;;;19.25;6.15;;;;;;;-147.95;100.00;58458.38;5065606;28;20086;-84
2023/08/31 07:16:27;;;;;;;13.18;6.20;;;;;;;-147.95;100.00;58458.38;5091262;28;20032;-84
2023/08/31 07:18:52;;;;;;;15.35;6.43;;;;;;;-147.95;100.00;58458.38;5071050;28;20027;-84
2023/08/31 07:21:17;;;;;;;20.58;6.57;;;;;;;-147.95;100.00;58458.38;5065265;28;20483;-84
2023/08/31 07:23:43;;;;;;;16.65;6.65;;;;;;;-147.95;100.00;58458.38;5085243;28;20078;-84
2023/08/31 07:26:08;;;;;;;18.02;7.28;;;;;;;-147.95;100.00;58458.38;5078131;28;20131;-84
2023/08/31 07:28:34;;;;;;;16.00;6.70;;;;;;;-147.95;100.00;58458.38;5085637;28;20668;-84
2023/08/31 07:31:06;;;;;;;17.17;6.70;;;;;;;-147.95;100.00;58458.38;5089845;28;20084;-84
2023/08/31 07:33:34;;;;;;;12.10;6.22;;;;;;;-147.95;100.00;58458.38;5087698;28;20122;-84
2023/08/31 07:36:00;;;;;;;21.02;6.53;;;;;;;-147.95;100.00;58458.38;5090927;28;20103;-84
2023/08/31 07:38:27;;;;;;;13.90;5.50;;;;;;;-147.95;100.00;58458.38;5088274;28;20031;-84
2023/08/31 07:40:53;;;;;;;11.80;5.40;;;;;;;-147.95;100.00;58458.38;5071377;28;20035;-79
2023/08/31 07:43:18;;;;;;;15.27;5.60;;;;;;;-147.95;100.00;58458.38;5072093;28;20035;-79
2023/08/31 07:45:45;;;;;;;12.68;6.00;;;;;;;-147.95;100.00;58458.38;5089328;28;20039;-79
2023/08/31 07:48:11;;;;;;;16.25;5.32;;;;;;;-147.95;100.00;58458.38;5087465;28;20027;-79
2023/08/31 07:50:36;;;;;;;14.18;5.63;;;;;;;-147.95;100.00;58458.38;5081537;28;20032;-78
2023/08/31 07:53:02;;;;;;;13.68;5.70;;;;;;;-147.95;100.00;58458.38;5088988;28;20372;-79
2023/08/31 07:55:27;;;;;;;18.52;6.10;;;;;;;-147.95;100.00;58458.38;5071052;28;20039;-79
2023/08/31 07:57:53;;;;;;;10.93;4.70;;;;;;;-147.95;100.00;58458.38;5089044;28;20024;-79
2023/08/31 08:00:18;;;;;;;13.35;4.95;;;;;;;-147.95;100.00;58458.38;5071795;28;20105;-79
2023/08/31 08:02:47;;;;;;;15.52;5.53;;;;;;;-147.95;100.00;58458.38;5088808;28;20379;-79
2023/08/31 08:05:12;;;;;;;10.27;4.90;;;;;;;-147.95;100.00;58458.38;5085851;28;20067;-79
2023/08/31 08:07:37;;;;;;;17.92;5.15;;;;;;;-147.95;100.00;58458.38;5088650;28;20027;-79
2023/08/31 08:10:03;;;;;;;11.68;4.55;;;;;;;-147.95;100.00;58458.38;5088106;28;20051;-79
2023/08/31 08:12:37;;;;;;;15.35;4.90;;;;;;;-147.95;100.00;58458.38;5070405;28;20035;-79
2023/08/31 08:15:02;;;;;;;13.95;4.63;;;;;;;-147.95;100.00;58458.38;5087471;28;20032;-79
2023/08/31 08:17:28;;;;;;;13.68;4.47;;;;;;;-147.95;100.00;58458.38;5086286;28;20081;-79
2023/08/31 08:19:53;;;;;;;14.38;4.25;;;;;;;-147.95;100.00;58458.38;5087162;28;20035;-79
2023/08/31 08:22:19;;;;;;;17.17;4.63;;;;;;;-147.95;100.00;58458.38;5071120;28;20036;-79
2023/08/31 08:24:44;;;;;;;11.82;3.90;;;;;;;-147.95;100.00;58458.38;5070303;28;20027;-79
2023/08/31 08:27:09;;;;;;;16.58;4.35;;;;;;;-147.95;100.00;58458.38;5089460;28;20142;-79
2023/08/31 08:29:35;;;;;;;11.68;3.80;;;;;;;-147.95;100.00;58458.38;5086851;28;20028;-79
2023/08/31 08:32:03;;;;;;;15.85;4.43;;;;;;;-147.95;100.00;58458.38;5061613;28;20119;-79
2023/08/31 08:34:28;;;;;;;13.18;3.97;;;;;;;-147.95;100.00;58458.38;5082505;28;20039;-79
2023/08/31 08:36:54;;;;;;;11.77;4.45;;;;;;;-147.95;100.00;58458.38;5077854;28;20107;-79
2023/08/31 08:39:19;;;;;;;11.07;4.35;;;;;;;-147.95;100.00;58458.38;5089001;28;20063;-79
2023/08/31 08:41:46;;;;;;;9.63;3.85;;;;;;;-147.95;100.00;58458.38;5069108;28;20498;-79
2023/08/31 08:44:18;;;;;;;14.73;4.72;;;;;;;-147.95;100.00;58458.38;5089338;28;20471;-79
2023/08/31 08:46:44;;;;;;;13.57;4.40;;;;;;;-147.95;100.00;58458.38;5089372;28;20505;-79
2023/08/31 08:49:10;;;;;;;14.18;4.13;;;;;;;-147.95;100.00;58458.38;5090040;28;20035;-80
2023/08/31 08:51:36;;;;;;;13.40;4.15;;;;;;;-147.95;100.00;58458.38;5069718;28;20039;-84
2023/08/31 08:54:03;;;;;;;13.13;4.00;;;;;;;-147.95;100.00;58458.38;5088398;28;20028;-83
2023/08/31 08:56:28;;;;;;;11.82;3.97;;;;;;;-147.95;100.00;58458.38;5075905;28;20024;-84
2023/08/31 08:58:54;;;;;;;17.63;3.75;;;;;;;-147.95;100.00;58458.38;5085245;28;20024;-84
2023/08/31 09:01:22;;;;;;;12.30;4.15;;;;;;;-147.95;100.00;58458.38;5076550;28;20040;-84
2023/08/31 09:03:49;;;;;;;12.88;4.57;;;;;;;-147.95;100.00;58458.38;5085821;28;20067;-84
2023/08/31 09:06:15;;;;;;;17.73;4.72;;;;;;;-147.95;100.00;58458.38;5087366;28;20024;-82
2023/08/31 09:08:41;;;;;;;14.27;4.65;;;;;;;-147.95;100.00;58458.38;5070414;28;20039;-82
2023/08/31 09:11:06;;;;;;;9.23;3.80;;;;;;;-147.95;100.00;58458.38;5068216;28;20025;-83
2023/08/31 09:13:33;;;;;;;15.05;4.60;;;;;;;-147.95;100.00;58458.38;5078451;28;20043;-84
2023/08/31 09:15:59;;;;;;;17.25;4.93;;;;;;;-147.95;100.00;58458.38;5076487;28;20036;-84
2023/08/31 09:18:27;;;;;;;13.73;4.97;;;;;;;-147.95;100.00;58458.38;5088542;28;20024;-84
2023/08/31 09:20:53;;;;;;;11.60;4.28;;;;;;;-147.95;100.00;58458.38;5087626;28;20028;-84
2023/08/31 09:23:20;;;;;;;12.13;4.78;;;;;;;-147.95;100.00;58458.38;5070413;28;20107;-84
2023/08/31 09:25:48;;;;;;;11.23;4.18;;;;;;;-147.95;100.00;58458.38;5088616;28;20020;-84
2023/08/31 09:28:15;;;;;;;16.75;5.03;;;;;;;-147.95;100.00;58458.38;5088907;28;20110;-84
2023/08/31 09:30:41;;;;;;;14.02;4.80;;;;;;;-147.95;100.00;58458.38;5071185;28;20028;-84
2023/08/31 09:33:09;;;;;;;8.52;4.35;;;;;;;-147.95;100.00;58458.38;5087338;28;20135;-84
2023/08/31 09:35:40;;;;;;;15.32;5.40;;;;;;;-147.95;100.00;58458.38;5087128;28;20130;-84
2023/08/31 09:38:09;;;;;;;25.77;5.00;;;;;;;-147.95;100.00;58458.38;5086177;28;20101;-84
2023/08/31 09:40:36;;;;;;;13.73;4.80;;;;;;;-147.95;100.00;58458.38;5090091;28;20024;-84
2023/08/31 09:43:02;;;;;;;12.75;4.68;;;;;;;-147.95;100.00;58458.38;5071660;28;20127;-84
2023/08/31 09:45:33;;;;;;;15.23;4.35;;;;;;;-147.95;100.00;58458.38;5085471;28;20028;-84
2023/08/31 09:48:03;;;;;;;15.88;4.22;;;;;;;-147.95;100.00;58458.38;5087958;28;20127;-84
2023/08/31 09:50:30;;;;;;;10.95;3.28;;;;;;;-147.95;100.00;58458.38;5088905;28;20143;-82
2023/08/31 09:53:03;;;;;;;13.00;3.13;;;;;;;-147.95;100.00;58458.38;5090479;28;20035;-82
2023/08/31 09:55:30;;;;;;;8.40;2.95;;;;;;;-147.95;100.00;58458.38;5092792;28;20070;-84
2023/08/31 09:58:05;;;;;;;12.57;3.22;;;;;;;-147.95;100.00;58458.38;5090853;28;20103;-85
2023/08/31 10:00:32;;;;;;;11.18;2.70;;;;;;;-147.95;100.00;58458.38;5089621;28;20566;-80
2023/08/31 10:03:02;;;;;;;13.63;2.97;;;;;;;-147.95;100.00;58458.38;5092628;28;20112;-79
2023/08/31 10:05:28;;;;;;;11.95;2.92;;;;;;;-147.95;100.00;58458.38;5092780;28;20028;-79
2023/08/31 10:07:55;;;;;;;12.20;3.10;;;;;;;-147.95;100.00;58458.38;5092862;28;20020;-79
2023/08/31 10:10:22;;;;;;;13.38;3.67;;;;;;;-147.95;100.00;58458.38;5090059;28;20054;-79
2023/08/31 10:12:49;;;;;;;7.80;2.80;;;;;;;-147.95;100.00;58458.38;5089057;28;20035;-79
2023/08/31 10:15:16;;;;;;;10.02;2.90;;;;;;;-147.95;100.00;58458.38;5093135;28;20541;-79
2023/08/31 10:17:42;;;;;;;7.60;3.03;;;;;;;-147.95;100.00;58458.38;5090940;28;20024;-79
2023/08/31 10:20:11;;;;;;;8.30;3.08;;;;;;;-147.95;100.00;58458.38;5092478;28;20109;-79
2023/08/31 10:22:37;;;;;;;16.65;3.50;;;;;;;-147.95;100.00;58458.38;5092288;28;20153;-79
2023/08/31 10:25:07;;;;;;;11.40;3.15;;;;;;;-147.95;100.00;58458.38;5092097;28;20100;-79
2023/08/31 10:27:45;;;;;;;8.57;2.60;;;;;;;-147.95;100.00;58458.38;5093098;28;20028;-79
2023/08/31 10:30:26;;;;;;;17.27;2.63;;;;;;;-147.95;100.00;58458.38;5093680;28;20066;-80
2023/08/31 10:33:09;;;;;;;14.82;2.80;;;;;;;-147.95;100.00;58458.38;5084134;28;20027;-80
2023/08/31 10:35:47;;;;;;;7.25;2.30;;;;;;;-147.95;100.00;58458.38;5092451;28;20028;-80
2023/08/31 10:38:26;;;;;;;5.53;2.33;;;;;;;-147.95;100.00;58458.38;5091853;28;20024;-80
2023/08/31 10:41:06;;;;;;;8.40;2.30;;;;;;;-147.95;100.00;58458.38;5091601;28;20103;-80
2023/08/31 10:43:51;;;;;;;10.93;2.15;;;;;;;-147.95;100.00;58458.38;5091843;28;20075;-80
2023/08/31 10:46:29;;;;;;;9.75;2.13;;;;;;;-147.95;100.00;58458.38;5086015;28;20591;-80
2023/08/31 10:49:10;;;;;;;11.10;2.38;;;;;;;-147.95;100.00;58458.38;5088408;28;20031;-80
2023/08/31 10:51:37;;;;;;;8.73;2.97;;;;;;;-147.95;100.00;58458.38;5089270;28;20020;-78
2023/08/31 10:54:10;;;;;;;14.98;2.65;;;;;;;-147.95;100.00;58458.38;5084309;28;20054;-77
2023/08/31 10:56:53;;;;;;;5.70;1.83;;;;;;;-147.95;100.00;58458.38;5089498;28;20372;-79
2023/08/31 10:59:19;;;;;;;9.02;2.50;;;;;;;-147.95;100.00;58458.38;5092806;28;20020;-79
2023/08/31 11:02:27;;;;;;;7.03;2.13;;;;;;;-147.95;100.00;58458.38;5085297;28;20021;-78
2023/08/31 11:04:54;;;;;;;7.88;1.98;;;;;;;-147.95;100.00;58458.38;5086965;28;20613;-79